Terminal Aerodrome Forecast
Issued by NWS Tampa Bay Area, FL

Current Version | Previous Version | Text Only | Print | Product List | Glossary On
Versions: 1 2 3 4 5 6 7 8 9 10 11 12 13 14 15 16 17 18 19 20 21 22 23 24 25
044
FTUS42 KTBW 222339
TAFSRQ
TAF
KSRQ 222339Z 2300/2324 12007KT P6SM VCSH SCT025 BKN070
     FM230300 10006KT P6SM FEW020 SCT150
     FM231400 12009KT P6SM SCT015 BKN250
     FM231700 15008KT P6SM VCTS SCT025CB BKN040
     FM232100 26006KT P6SM VCTS SCT030CB BKN100=

USA.gov is the U.S. government's official web portal to all federal, state and local government web resources and services.